Main page
Satellite images 15-day forecastsClimateMarine weather Cyclones Lightning AirportsFAQ Newsletter About
Weather : Europe Africa North America South America Asia Australia-Oceania Others
Languages Contact

Lisbon, Portugal

Portela

latitude: 38-46N, longitude: 009-08W, elevation: 114 m


METAR: LPPT 290900Z 03009KT 9999 FEW020 12/08 Q0997
TAF: LPPT 290500Z 2906/3012 04010KT 9999 FEW040 BECMG 2909/2912 34013KT BECMG 2922/2924 34007KT SCT020

Time: 09:26 (09:26 UTC)

Current weather observation

The report was made 26 minutes ago, at 09:00 UTC
Wind 9 kt from the North/Northeast
Temperature 12°C
Humidity 76%
Pressure 997 hPa
Visibility 10 km or more
Few clouds at a height of 2000 ft

Change units

Forecast

The report was made 4 hours and 26 minutes ago, at 05:00 UTC
Forecast valid from 29 at 06 UTC to 30 at 12 UTC
Wind 10 kt from the Northeast
Visibility 10 km or more
Few clouds at a height of 4000 ft
Becoming
from 29 at 09 UTC to 29 at 12 UTC
Wind 13 kt from the North/Northwest
Becoming
from 29 at 22 UTC to 29 at 24 UTC
Wind 7 kt from the North/Northwest
Scattered clouds at a height of 2000 ft
The information on this site is subject to a disclaimer
Weather : Europe Africa North America South America Asia Australia-Oceania Others
Satellite images 15-day forecastsClimateMarine weather Cyclones Lightning AirportsFAQ Languages Contact Newsletter About